Forside
METAR-TAF:

METAR-TAF

Lufthavne :

Lewis University Airport

Romeoville, Illinois, USA

Breddekreds: 41-36-30N, længdekreds: 088-05-39W, højde: 205 m

Aktuelle vejr

Denne rapport blev lavet for 26 minutter siden, kl. 13:35 UTC
Vind stille
Temperatur 8°C
Fugtighed 66%
Tryk 1028 hPa
Sigt: 16.1 km
skyfri

METAR: KLOT 111335Z AUTO 00000KT 10SM CLR 08/02 A3035 RMK AO2 T00820019

Tid: 09:01 (14:01 UTC)


TAF: fraværende

Vejrobservationer og prognoser fra mere end 4000 lufthavne (METAR og TAF).

De gule og røde prikker repræsenterer de meteorologiske stationer.

Flyt musen over at se navnet på stationen.

Så klik over at se vejr observationer og prognoser.

At skifte det kort: Klik på de grønne knapper med et sort kors for at zoome ind; på den grønne knap med en bindestreg for at zoome ud; eller på de grønne pile for tilstødende kort.


METAR-TAF: